Webcam 1 more information Webcam 1


Webcam 2 more information Webcam 2


altri nostri siti meteo:

Pomeziameteo 1Sito sul meteo

Pomeziameteo DashboardSito sul meteo

Caput FrigorisSito sul meteo

BarcellonameteoSito sul meteo

MeteoipassiSito sul meteo

ViterbometeoSito sul meteo

MeteotortoretoSito sul meteo

Stazione LineameteoSito sul meteo



Nessuna attenzione particolare richiesta.    Non ci sono allerte meteo

Weather Underground Storia pagina Testo

Quotidiano Riepilogo per maggio 28, 2018 Unita:  Metrico    Inglese   Entrambi
« Indietro Day
Avanti Day »
Quotidiano Settimanale mensile Annuale Personalizzato
  Attuale: Max: Min: Media:
Temperatura: -3.7 °C -17.8 °C -8.3 °C -7.2 °C
P.to Rugiada: -15.1 °C -17.8 °C -15.3 °C -13 °C
Umidita: 27 % Humidity % 27 % 52 %
Vel. Vento: 0 km/h 0 km/h 0 km/h 8.4 km/h
Raffiche: 7.7 km/h 0 km/h - -
Vento:Calm - - WSW
Pressione: 34395 hPa 0 hPa 34337.4 hPa -
Precipitazioni: 0 mm      
Historical Graphs
 
 
Dati di tabella per il maggio 28, 2018
Tempo Temperatura P.to Rugiada Pressione Vento Vel. Vento Raffiche Umidita Tasso delle precipitazioni (oraria)
-17.8 °C -17.8 °C 0 hPa Calm     Humidity % 0 mm
00:00 -7 °C -11 °C 34361.1 hPa SW 7.7 km/h 12.9 km/h 63 % 0 mm
00:05 -7 °C -11.2 °C 34361.1 hPa SW 10.3 km/h 15.6 km/h 62 % 0 mm
00:10 -7.1 °C -11.2 °C 34361.1 hPa SW 10.3 km/h 15.6 km/h 62 % 0 mm
00:15 -7.1 °C -11.2 °C 34361.1 hPa SW 10.3 km/h 15.6 km/h 62 % 0 mm
00:20 -7.1 °C -11.3 °C 34361.1 hPa WNW 10.3 km/h 15.6 km/h 62 % 0 mm
00:25 -7.1 °C -11.2 °C 34361.1 hPa WSW 10.3 km/h 20.8 km/h 63 % 0 mm
00:30 -7.1 °C -11.2 °C 34361.1 hPa WSW 5.1 km/h 15.6 km/h 62 % 0 mm
00:35 -7.1 °C -11.3 °C 34361.1 hPa SW 12.9 km/h 20.8 km/h 61 % 0 mm
00:40 -7.1 °C -11.4 °C 34361.1 hPa WSW 7.7 km/h 18.2 km/h 61 % 0 mm
00:45 -7.1 °C -11.4 °C 34361.1 hPa Calm   15.6 km/h 61 % 0 mm
00:55 -7.2 °C -11.6 °C 34361.1 hPa WSW 5.1 km/h 15.6 km/h 60 % 0 mm
01:00 -7.2 °C -11.9 °C 34361.1 hPa WSW 7.7 km/h 15.6 km/h 58 % 0 mm
01:05 -7.1 °C -12 °C 34361.1 hPa SW 5.1 km/h 15.6 km/h 57 % 0 mm
01:10 -7.2 °C -12.2 °C 34395 hPa WSW 7.7 km/h 12.9 km/h 56 % 0 mm
01:15 -7.2 °C -12.2 °C 34395 hPa West 7.7 km/h 15.6 km/h 56 % 0 mm
01:20 -7.2 °C -12.3 °C 34395 hPa WSW 5.1 km/h 10.3 km/h 55 % 0 mm
01:25 -7.2 °C -12.3 °C 34395 hPa West 10.3 km/h 15.6 km/h 55 % 0 mm
01:30 -7.2 °C -12.4 °C 34395 hPa WSW 7.7 km/h 15.6 km/h 55 % 0 mm
01:35 -7.3 °C -12 °C 34395 hPa West 5.1 km/h 10.3 km/h 58 % 0 mm
01:40 -7.3 °C -11.9 °C 34361.1 hPa West 5.1 km/h 10.3 km/h 59 % 0 mm
01:45 -7.4 °C -11.8 °C 34371.3 hPa Calm   7.7 km/h 60 % 0 mm
01:50 -7.4 °C -11.8 °C 34371.3 hPa Calm   7.7 km/h 60 % 0 mm
01:55 -7.4 °C -11.8 °C 34371.3 hPa Calm   5.1 km/h 60 % 0 mm
02:00 -7.5 °C -11.8 °C 34371.3 hPa Calm     61 % 0 mm
02:05 -7.6 °C -11.6 °C 34371.3 hPa Calm     63 % 0 mm
02:10 -7.8 °C -11.5 °C 34405.1 hPa WNW 10.3 km/h 12.9 km/h 65 % 0 mm
02:15 -7.8 °C -11.3 °C 34405.1 hPa WNW 5.1 km/h 12.9 km/h 67 % 0 mm
02:20 -7.7 °C -11.3 °C 34405.1 hPa West 7.7 km/h 10.3 km/h 66 % 0 mm
02:25 -7.8 °C -11.5 °C 34405.1 hPa West 7.7 km/h 12.9 km/h 65 % 0 mm
02:30 -7.7 °C -11.4 °C 34405.1 hPa West 7.7 km/h 10.3 km/h 65 % 0 mm
02:40 -7.7 °C -12.1 °C 34405.1 hPa West 12.9 km/h 18.2 km/h 60 % 0 mm
02:45 -7.7 °C -11.9 °C 34405.1 hPa West 7.7 km/h 15.6 km/h 61 % 0 mm
02:50 -7.8 °C -11.3 °C 34405.1 hPa WNW 10.3 km/h 15.6 km/h 67 % 0 mm
03:00 -7.8 °C -11.4 °C 34371.3 hPa WSW 10.3 km/h 15.6 km/h 66 % 0 mm
03:05 -7.8 °C -11.7 °C 34371.3 hPa West 7.7 km/h 15.6 km/h 64 % 0 mm
03:10 -7.9 °C -11.7 °C 34371.3 hPa WNW 7.7 km/h 15.6 km/h 64 % 0 mm
03:15 -7.8 °C -11.8 °C 34371.3 hPa WSW 10.3 km/h 12.9 km/h 63 % 0 mm
03:20 -7.8 °C -11.9 °C 34371.3 hPa WNW 7.7 km/h 15.6 km/h 62 % 0 mm
03:25 -7.8 °C -12.1 °C 34371.3 hPa WSW 12.9 km/h 20.8 km/h 61 % 0 mm
03:30 -7.8 °C -12.2 °C 34371.3 hPa West 10.3 km/h 20.8 km/h 60 % 0 mm
03:35 -7.9 °C -12.3 °C 34371.3 hPa West 12.9 km/h 20.8 km/h 60 % 0 mm
03:40 -7.9 °C -12.2 °C 34371.3 hPa WSW 15.6 km/h 25.9 km/h 61 % 0 mm
03:45 -8 °C -12 °C 34371.3 hPa WSW 12.9 km/h 25.9 km/h 63 % 0 mm
03:50 -8.1 °C -12.1 °C 34371.3 hPa West 5.1 km/h 10.3 km/h 63 % 0 mm
03:55 -8.2 °C -12.2 °C 34371.3 hPa West 7.7 km/h 10.3 km/h 63 % 0 mm
04:00 -8.3 °C -11.7 °C 34371.3 hPa Calm   10.3 km/h 67 % 0 mm
04:05 -8.3 °C -11.6 °C 34371.3 hPa Calm   7.7 km/h 69 % 0 mm
04:10 -8.3 °C -11.5 °C 34371.3 hPa WSW 7.7 km/h 12.9 km/h 69 % 0 mm
04:15 -8.2 °C -11.6 °C 34371.3 hPa SSW 7.7 km/h 15.6 km/h 68 % 0 mm
04:20 -8.2 °C -11.8 °C 34371.3 hPa WSW 10.3 km/h 15.6 km/h 66 % 0 mm
04:25 -8.1 °C -12.1 °C 34371.3 hPa West 12.9 km/h 18.2 km/h 63 % 0 mm
04:30 -8.1 °C -12.3 °C 34371.3 hPa West 10.3 km/h 12.9 km/h 61 % 0 mm
04:35 -8.1 °C -12.3 °C 34371.3 hPa WSW 10.3 km/h 12.9 km/h 61 % 0 mm
04:40 -8.1 °C -12.5 °C 34371.3 hPa SW 10.3 km/h 15.6 km/h 60 % 0 mm
04:45 -8.1 °C -12.6 °C 34371.3 hPa SSW 12.9 km/h 20.8 km/h 59 % 0 mm
04:50 -8.1 °C -12.7 °C 34371.3 hPa WSW 10.3 km/h 18.2 km/h 58 % 0 mm
04:55 -8.1 °C -12.9 °C 34371.3 hPa SW 12.9 km/h 18.2 km/h 57 % 0 mm
05:00 -8 °C -12.9 °C 34371.3 hPa West 7.7 km/h 18.2 km/h 56 % 0 mm
05:05 -8.1 °C -13 °C 34371.3 hPa SW 12.9 km/h 18.2 km/h 56 % 0 mm
05:10 -8.1 °C -13 °C 34371.3 hPa West 10.3 km/h 20.8 km/h 56 % 0 mm
05:15 -8.1 °C -13.1 °C 34371.3 hPa West 10.3 km/h 15.6 km/h 56 % 0 mm
05:20 -8.2 °C -12.8 °C 34371.3 hPa West 15.6 km/h 20.8 km/h 58 % 0 mm
05:25 -8.2 °C -12.9 °C 34371.3 hPa West 10.3 km/h 20.8 km/h 57 % 0 mm
05:30 -8.2 °C -12.9 °C 34371.3 hPa West 10.3 km/h 12.9 km/h 58 % 0 mm
05:35 -8.2 °C -12.9 °C 34371.3 hPa WSW 12.9 km/h 18.2 km/h 58 % 0 mm
05:40 -8.2 °C -13 °C 34337.4 hPa WSW 10.3 km/h 12.9 km/h 57 % 0 mm
05:45 -8.2 °C -12.9 °C 34337.4 hPa WSW 7.7 km/h 18.2 km/h 58 % 0 mm
05:50 -8.2 °C -12.9 °C 34337.4 hPa West 10.3 km/h 20.8 km/h 57 % 0 mm
05:55 -8.2 °C -13.1 °C 34371.3 hPa WSW 10.3 km/h 20.8 km/h 56 % 0 mm
06:00 -8.2 °C -13.2 °C 34371.3 hPa West 10.3 km/h 15.6 km/h 56 % 0 mm
06:05 -8.2 °C -13 °C 34371.3 hPa WSW 15.6 km/h 20.8 km/h 57 % 0 mm
06:15 -7.9 °C -13.5 °C 34371.3 hPa WSW 10.3 km/h 15.6 km/h 52 % 0 mm
06:20 -7.8 °C -13.6 °C 34371.3 hPa WSW 7.7 km/h 15.6 km/h 51 % 0 mm
06:25 -7.8 °C -13.7 °C 34371.3 hPa West 12.9 km/h 15.6 km/h 50 % 0 mm
06:30 -7.9 °C -13.4 °C 34371.3 hPa WSW 10.3 km/h 12.9 km/h 52 % 0 mm
06:35 -7.9 °C -13.4 °C 34371.3 hPa West 10.3 km/h 18.2 km/h 52 % 0 mm
06:40 -7.8 °C -13.7 °C 34371.3 hPa West 10.3 km/h 15.6 km/h 50 % 0 mm
06:45 -7.7 °C -13.7 °C 34371.3 hPa WSW 10.3 km/h 12.9 km/h 49 % 0 mm
06:50 -7.6 °C -14 °C 34371.3 hPa WSW 7.7 km/h 15.6 km/h 47 % 0 mm
06:55 -7.4 °C -14.1 °C 34405.1 hPa WSW 10.3 km/h 12.9 km/h 46 % 0 mm
07:00 -7.3 °C -14.1 °C 34395 hPa West 7.7 km/h 15.6 km/h 45 % 0 mm
07:05 -7.3 °C -14.1 °C 34395 hPa West 5.1 km/h 12.9 km/h 45 % 0 mm
07:10 -7.2 °C -14.2 °C 34395 hPa West 10.3 km/h 15.6 km/h 44 % 0 mm
07:15 -7.2 °C -14.2 °C 34395 hPa West 7.7 km/h 12.9 km/h 44 % 0 mm
07:20 -7.1 °C -14.3 °C 34395 hPa West 10.3 km/h 15.6 km/h 43 % 0 mm
07:25 -7.1 °C -14.2 °C 34361.1 hPa WSW 10.3 km/h 15.6 km/h 43 % 0 mm
07:35 -6.9 °C -14.3 °C 34361.1 hPa SW 10.3 km/h 15.6 km/h 42 % 0 mm
07:45 -6.7 °C -14.9 °C 34361.1 hPa WSW 12.9 km/h 18.2 km/h 38 % 0 mm
07:50 -6.6 °C -14.6 °C 34361.1 hPa West 10.3 km/h 15.6 km/h 39 % 0 mm
07:55 -6.5 °C -14.7 °C 34361.1 hPa WSW 12.9 km/h 20.8 km/h 38 % 0 mm
08:00 -6.4 °C -14.4 °C 34361.1 hPa West 7.7 km/h 15.6 km/h 39 % 0 mm
08:05 -6.3 °C -14.1 °C 34361.1 hPa Calm   12.9 km/h 40 % 0 mm
08:10 -6.1 °C -14 °C 34395 hPa West 5.1 km/h 10.3 km/h 40 % 0 mm
08:15 -5.9 °C -14.8 °C 34395 hPa WSW 7.7 km/h 15.6 km/h 35 % 0 mm
08:20 -5.7 °C -15.1 °C 34395 hPa West 7.7 km/h 15.6 km/h 33 % 0 mm
08:25 -5.6 °C -15.3 °C 34395 hPa West 7.7 km/h 15.6 km/h 32 % 0 mm
08:30 -5.4 °C -15.2 °C 34395 hPa West 7.7 km/h 12.9 km/h 32 % 0 mm
08:35 -5.4 °C -15.1 °C 34395 hPa West 7.7 km/h 10.3 km/h 32 % 0 mm
08:40 -5.4 °C -14.9 °C 34395 hPa West 10.3 km/h 20.8 km/h 33 % 0 mm
08:45 -5.3 °C -14.8 °C 34395 hPa WSW 15.6 km/h 20.8 km/h 33 % 0 mm
08:50 -5.3 °C -14.8 °C 34395 hPa SW 10.3 km/h 15.6 km/h 33 % 0 mm
08:55 -5.2 °C -14.7 °C 34395 hPa WSW 10.3 km/h 15.6 km/h 33 % 0 mm
09:00 -5.1 °C -14.8 °C 34395 hPa SSW 10.3 km/h 20.8 km/h 32 % 0 mm
09:05 -5 °C -14.8 °C 34395 hPa NW 5.1 km/h 12.9 km/h 32 % 0 mm
09:10 -4.9 °C -14.9 °C 34361.1 hPa WSW 5.1 km/h 12.9 km/h 31 % 0 mm
09:15 -4.8 °C -14.8 °C 34361.1 hPa SW 7.7 km/h 12.9 km/h 31 % 0 mm
09:20 -4.7 °C -14.8 °C 34361.1 hPa WNW 10.3 km/h 12.9 km/h 31 % 0 mm
09:25 -4.6 °C -14.7 °C 34395 hPa NNW 10.3 km/h 12.9 km/h 31 % 0 mm
09:30 -4.4 °C -14.6 °C 34395 hPa SW 5.1 km/h 10.3 km/h 31 % 0 mm
09:35 -4.3 °C -14.5 °C 34395 hPa SW 5.1 km/h 7.7 km/h 31 % 0 mm
09:40 -4.2 °C -14.4 °C 34395 hPa Calm   7.7 km/h 31 % 0 mm
09:45 -4.1 °C -14.5 °C 34395 hPa Calm   7.7 km/h 30 % 0 mm
09:50 -3.9 °C -15.2 °C 34395 hPa SW 5.1 km/h 7.7 km/h 27 % 0 mm
09:55 -3.7 °C -15.1 °C 34395 hPa Calm   7.7 km/h 27 % 0 mm
Stazione meteorologica di Castelnuovo Vomano (TE)
complimenti di Weather Underground - 3 mb

Script sviluppato da  Jim McMurry - jmcmurry@mwt.net Adattato per il modello da  Wim van der Kuil - Leuven-Template.eu

Potete trovare le nostre info meteo anche a:

Weather Underground

AWEKAS

Citizen Weather Observer Program (CWOP)

HAMweather, WeatherForYou, PWS Weather

Strumentazione usata:

Stazione meteo
Oregon 928

Programma gestore dati meteo
WVIEW

Server per i dati meteo
Pc-WDS5

Oregon 928

WVIEW

Pc-WDS5